SVRX weather

Hacienda Río Yaza Airport
Zulia, Venezuela

Public forecast

Using degrees Celsius for public forecast. Weather courtesy of forecast.io.

Closest aviation weather report (METAR) to Hacienda Río Yaza Airport

Report is more than 6 hours old.

Closest report is Alfonso López Pumarejo Airport, 54.6 nm (101.2 km) NW. Retrieved 2020/05/24 20:00 UTC (23 hours ago):

SKVP 242000Z 23010KT 9999 FEW020TCU SCT200 35/25 A2978 RMK TCU/NE/E

Closest aviation forecast (TAF) to Hacienda Río Yaza Airport

Forecast is more than 12 hours old.

Closest forecast is Villa del Rosario Airport, 31.9 nm (59.2 km) NNE. Retrieved 2019/09/09 18:00 UTC (9 months ago):

TAF SVVS 091700Z 0918/1018 18004KT 9999 BKN016 TX30/0919Z TN22/1008Z TEMPO 0919/0921 9000 DZ TEMPO 0922/1002 24005KT 9999 SCT016 SCT150